Ocotillo, California
Current Conditions -  °F | °C
As of 12:56 PM on Friday 24 Oct 2014 (Local Time) from KNJK Reporting Station
Clear Clear  
Wind Chill: 92°   Ceiling: Unl
Heat Index: 92°   Visibility: 10mi
Dew Point: 46°   Wind: 6mph
Humidity: 20%   Direction: NA
Pressure: 29.93"   Gusts: NA
Location:  32.74°N, 115.99°W
Report Text: KNJK 241956Z VRB05KT 10SM CLR 33/08 A2993 RMK AO2 SLP149 T03330078
Loading
Personal Weather Stations






























Interactive Weather Map New forecast layout! Learn more

10-Day Weather Forecast

Advertisements
Track Severe Weather on mobile